createdAt,value
2019-05-13T00:02:14.816Z,56.93
2019-05-13T00:04:45.528Z,56.44
2019-05-13T00:07:16.069Z,57.55
2019-05-13T00:09:47.177Z,58.85
2019-05-13T00:12:19.607Z,57.43
2019-05-13T00:15:11.152Z,58.20
2019-05-13T00:17:44.333Z,60.43
2019-05-13T00:20:15.007Z,60.56
2019-05-13T00:22:45.153Z,59.01
2019-05-13T00:25:15.350Z,59.85
2019-05-13T00:27:45.162Z,61.76
2019-05-13T00:30:14.882Z,61.76
2019-05-13T00:32:44.871Z,61.23
2019-05-13T00:35:14.617Z,62.10
2019-05-13T00:37:44.523Z,62.54
2019-05-13T00:40:14.712Z,62.80
2019-05-13T00:42:44.708Z,63.33
2019-05-13T00:45:14.761Z,63.80
2019-05-13T00:47:44.326Z,64.06
2019-05-13T00:50:14.490Z,64.71
2019-05-13T00:52:45.121Z,65.02
2019-05-13T00:55:15.102Z,65.77
2019-05-13T00:57:44.681Z,65.73
2019-05-13T01:00:14.439Z,65.77
2019-05-13T01:02:45.801Z,66.38
2019-05-13T01:05:15.630Z,66.96
2019-05-13T01:07:45.137Z,67.04
2019-05-13T01:10:14.846Z,66.84
2019-05-13T01:12:44.828Z,66.75
2019-05-13T01:15:15.223Z,66.19
2019-05-13T01:17:45.934Z,65.73
2019-05-13T01:20:15.835Z,65.59
2019-05-13T01:22:45.410Z,64.92
2019-05-13T01:25:15.026Z,65.20
2019-05-13T01:27:44.611Z,65.95
2019-05-13T01:30:14.969Z,66.67
2019-05-13T01:32:45.059Z,66.80
2019-05-13T01:35:15.082Z,67.08
2019-05-13T01:37:46.050Z,67.14
2019-05-13T01:40:15.880Z,67.42
2019-05-13T01:42:45.651Z,67.87
2019-05-13T01:45:15.514Z,69.13
2019-05-13T01:47:44.959Z,68.79
2019-05-13T01:50:15.065Z,68.30
2019-05-13T01:52:44.903Z,68.67
2019-05-13T01:55:14.972Z,69.16
2019-05-13T01:57:44.807Z,69.72
2019-05-13T02:00:15.229Z,70.08
2019-05-13T02:02:45.097Z,70.72
2019-05-13T02:05:14.573Z,70.15
2019-05-13T02:07:57.057Z,71.10
2019-05-13T02:10:17.167Z,71.34
2019-05-13T02:12:47.167Z,71.33
2019-05-13T02:15:17.026Z,72.27
2019-05-13T02:17:46.738Z,72.57
2019-05-13T02:20:16.253Z,72.30
2019-05-13T02:22:45.702Z,73.04
2019-05-13T02:25:15.164Z,72.79
2019-05-13T02:27:44.920Z,72.99
2019-05-13T02:30:16.129Z,73.16
2019-05-13T02:32:45.594Z,73.24
2019-05-13T02:35:15.056Z,74.14
2019-05-13T02:37:44.513Z,73.80
2019-05-13T02:40:14.325Z,73.84
2019-05-13T02:42:44.018Z,73.97
2019-05-13T02:45:33.510Z,74.32
2019-05-13T02:48:03.572Z,74.73
2019-05-13T02:50:34.067Z,74.81
2019-05-13T02:53:03.618Z,75.75
2019-05-13T02:55:33.236Z,75.55
2019-05-13T02:58:03.488Z,74.66
2019-05-13T03:00:33.227Z,74.08
2019-05-13T03:03:03.412Z,73.94
2019-05-13T03:05:32.998Z,73.92
2019-05-13T03:08:03.532Z,73.51
2019-05-13T03:10:34.595Z,74.30
2019-05-13T03:13:04.316Z,72.99
2019-05-13T03:15:35.518Z,74.10
2019-05-13T03:18:07.200Z,74.54
2019-05-13T03:20:36.676Z,74.02
2019-05-13T03:23:06.134Z,74.54
2019-05-13T03:25:35.865Z,75.54
2019-05-13T03:28:05.323Z,74.34
2019-05-13T03:30:35.788Z,74.66
2019-05-13T03:33:10.688Z,75.03
2019-05-13T03:35:37.453Z,74.83
2019-05-13T03:38:12.478Z,75.24
2019-05-13T03:40:42.494Z,75.33
2019-05-13T03:43:12.792Z,75.25
2019-05-13T03:45:43.536Z,75.28
2019-05-13T03:48:13.322Z,75.23
2019-05-13T03:50:43.522Z,75.21
2019-05-13T03:53:13.308Z,75.49
2019-05-13T03:55:43.599Z,76.10
2019-05-13T03:58:13.482Z,76.33
2019-05-13T04:00:44.034Z,76.14
2019-05-13T04:03:13.969Z,75.64
2019-05-13T04:05:43.980Z,75.54
2019-05-13T04:08:13.802Z,75.29
2019-05-13T04:10:43.336Z,75.09
2019-05-13T04:13:13.120Z,75.03
2019-05-13T04:15:42.956Z,74.90
2019-05-13T04:18:12.942Z,74.76
2019-05-13T04:20:42.639Z,75.02
2019-05-13T04:23:12.974Z,75.02
2019-05-13T04:25:44.692Z,75.22
2019-05-13T04:28:13.982Z,75.60
2019-05-13T04:30:43.793Z,75.76
2019-05-13T04:33:14.107Z,76.10
2019-05-13T04:35:43.746Z,76.08
2019-05-13T04:38:13.430Z,76.74
2019-05-13T04:40:43.236Z,76.44
2019-05-13T04:43:13.585Z,76.70
2019-05-13T04:45:43.291Z,75.84
2019-05-13T04:48:13.079Z,76.21
2019-05-13T04:50:43.245Z,76.20
2019-05-13T04:53:13.668Z,74.97
2019-05-13T04:55:43.895Z,74.77
2019-05-13T04:58:13.374Z,74.18
2019-05-13T05:00:49.694Z,77.17
2019-05-13T05:03:41.229Z,74.48
2019-05-13T05:06:32.867Z,71.58
2019-05-13T05:09:12.665Z,72.12
2019-05-13T05:12:19.070Z,69.46
2019-05-13T05:15:12.127Z,69.46
2019-05-13T05:17:56.736Z,69.28
2019-05-13T05:20:38.323Z,68.09
2019-05-13T05:23:16.681Z,67.35
2019-05-13T05:26:14.850Z,64.81
2019-05-13T05:28:55.132Z,60.60
2019-05-13T05:31:33.728Z,58.91
2019-05-13T05:34:11.421Z,58.61
2019-05-13T05:36:56.864Z,58.41
2019-05-13T05:39:27.680Z,54.34
2019-05-13T05:41:59.077Z,53.55
2019-05-13T05:44:32.469Z,50.51
2019-05-13T05:47:03.036Z,47.54
2019-05-13T05:49:32.744Z,45.27
2019-05-13T05:52:06.882Z,45.27
2019-05-13T05:54:38.287Z,45.26
2019-05-13T05:57:09.036Z,43.23
2019-05-13T05:59:38.964Z,42.18
2019-05-13T06:02:08.742Z,41.52
2019-05-13T06:04:38.376Z,41.80
2019-05-13T06:07:07.894Z,40.96
2019-05-13T06:09:37.340Z,42.59
2019-05-13T06:12:07.233Z,40.21
2019-05-13T06:14:36.752Z,41.54
2019-05-13T06:17:06.266Z,40.97
2019-05-13T06:19:35.736Z,39.44
2019-05-13T06:22:05.554Z,38.82
2019-05-13T06:24:35.008Z,39.52
2019-05-13T06:27:04.593Z,40.26
2019-05-13T06:29:34.700Z,38.45
2019-05-13T06:32:18.250Z,40.44
2019-05-13T06:34:35.376Z,38.83
2019-05-13T06:37:05.261Z,40.18
2019-05-13T06:39:35.080Z,37.69
2019-05-13T06:42:04.537Z,37.96
2019-05-13T06:44:33.983Z,37.88
2019-05-13T06:47:03.520Z,39.33
2019-05-13T06:49:32.993Z,37.72
2019-05-13T06:52:02.451Z,36.40
2019-05-13T06:54:32.881Z,36.95
2019-05-13T06:57:05.493Z,37.68
2019-05-13T06:59:34.424Z,36.18
2019-05-13T07:02:04.039Z,37.61
2019-05-13T07:04:33.519Z,36.05
2019-05-13T07:07:12.275Z,37.31
2019-05-13T07:09:34.221Z,38.09
2019-05-13T07:12:03.788Z,38.57
2019-05-13T07:14:33.575Z,35.81
2019-05-13T07:17:03.029Z,36.15
2019-05-13T07:19:32.718Z,36.54
2019-05-13T07:22:03.068Z,33.75
2019-05-13T07:24:32.991Z,35.13
2019-05-13T07:27:02.506Z,37.21
2019-05-13T07:29:32.728Z,35.15
2019-05-13T07:32:02.436Z,39.03
2019-05-13T07:34:33.667Z,34.64
2019-05-13T07:37:03.086Z,37.55
2019-05-13T07:39:33.142Z,36.97
2019-05-13T07:42:05.876Z,38.53
2019-05-13T07:44:34.427Z,36.95
2019-05-13T07:47:03.979Z,38.06
2019-05-13T07:49:33.589Z,37.72
2019-05-13T07:52:03.041Z,38.11
2019-05-13T07:54:33.321Z,35.88
2019-05-13T07:57:02.887Z,36.44
2019-05-13T07:59:32.347Z,37.72
2019-05-13T08:02:02.591Z,35.97
2019-05-13T08:04:33.500Z,33.60
2019-05-13T08:07:03.304Z,33.48
2019-05-13T08:09:32.808Z,32.42
2019-05-13T08:12:09.894Z,31.01
2019-05-13T08:14:34.121Z,35.24
2019-05-13T08:17:03.588Z,33.33
2019-05-13T08:19:33.061Z,33.47
2019-05-13T08:22:02.716Z,32.80
2019-05-13T08:24:32.383Z,31.90
2019-05-13T08:27:02.443Z,30.83
2019-05-13T08:29:33.038Z,32.72
2019-05-13T08:32:03.226Z,32.46
2019-05-13T08:34:33.205Z,34.94
2019-05-13T08:37:03.379Z,35.34
2019-05-13T08:39:38.104Z,33.90
2019-05-13T08:42:15.157Z,32.47
2019-05-13T08:44:35.821Z,33.41
2019-05-13T08:47:05.281Z,32.98
2019-05-13T08:49:34.817Z,32.16
2019-05-13T08:52:04.346Z,33.26
2019-05-13T08:54:34.406Z,33.08
2019-05-13T08:57:03.946Z,35.51
2019-05-13T08:59:33.729Z,35.08
2019-05-13T09:02:03.612Z,36.74
2019-05-13T09:04:33.141Z,38.09
2019-05-13T09:07:03.496Z,35.19
2019-05-13T09:09:32.935Z,34.44
2019-05-13T09:12:02.872Z,35.90
2019-05-13T09:14:32.752Z,35.64
2019-05-13T09:17:02.475Z,34.24
2019-05-13T09:19:32.541Z,36.56
2019-05-13T09:22:03.359Z,34.06
2019-05-13T09:24:37.515Z,35.76
2019-05-13T09:27:04.288Z,35.19
2019-05-13T09:29:33.742Z,39.19
2019-05-13T09:32:04.072Z,39.26
2019-05-13T09:34:33.951Z,37.41
2019-05-13T09:37:03.583Z,35.11
2019-05-13T09:39:33.039Z,32.47
2019-05-13T09:42:03.232Z,33.52
2019-05-13T09:44:33.215Z,33.97
2019-05-13T09:47:03.062Z,32.20
2019-05-13T09:49:33.223Z,34.04
2019-05-13T09:52:02.778Z,35.99
2019-05-13T09:54:33.152Z,33.22
2019-05-13T09:57:03.133Z,32.84
2019-05-13T09:59:32.577Z,32.95
2019-05-13T10:02:03.345Z,31.62
2019-05-13T10:04:33.131Z,31.67
2019-05-13T10:07:02.827Z,32.61
2019-05-13T10:09:33.029Z,30.80
2019-05-13T10:12:03.501Z,32.07
2019-05-13T10:14:33.384Z,32.86
2019-05-13T10:17:06.161Z,32.59
2019-05-13T10:19:34.515Z,30.62
2019-05-13T10:22:04.125Z,30.48
2019-05-13T10:24:33.740Z,30.13
2019-05-13T10:27:03.405Z,32.93
2019-05-13T10:29:33.022Z,33.16
2019-05-13T10:32:03.706Z,33.27
2019-05-13T10:34:33.851Z,31.15
2019-05-13T10:37:03.371Z,32.06
2019-05-13T10:39:34.051Z,30.07
2019-05-13T10:42:03.996Z,29.28
2019-05-13T10:44:33.873Z,33.66
2019-05-13T10:47:03.332Z,33.64
2019-05-13T10:52:04.028Z,36.75
2019-05-13T10:54:33.502Z,36.54
2019-05-13T10:57:03.957Z,38.84
2019-05-13T10:59:33.731Z,40.03
2019-05-13T11:02:03.186Z,40.62
2019-05-13T11:04:32.970Z,41.90
2019-05-13T11:07:03.229Z,36.76
2019-05-13T11:09:32.954Z,33.68
2019-05-13T11:12:03.595Z,32.92
2019-05-13T11:14:33.069Z,27.65
2019-05-13T11:17:02.519Z,26.38
2019-05-13T11:19:36.142Z,28.60
2019-05-13T11:22:03.448Z,26.87
2019-05-13T11:24:32.978Z,29.17
2019-05-13T11:27:02.981Z,26.95
2019-05-13T11:29:32.777Z,28.68
2019-05-13T11:32:02.953Z,30.86
2019-05-13T11:34:33.111Z,32.17
2019-05-13T11:37:03.565Z,32.95
2019-05-13T11:39:33.438Z,35.70
2019-05-13T11:42:03.001Z,35.87
2019-05-13T11:44:32.705Z,36.43
2019-05-13T11:47:02.845Z,33.21
2019-05-13T11:49:32.711Z,32.31
2019-05-13T11:52:02.834Z,32.40
2019-05-13T11:54:32.711Z,34.16
2019-05-13T11:57:06.222Z,33.62
2019-05-13T11:59:33.314Z,31.51
2019-05-13T12:02:04.574Z,28.66
2019-05-13T12:04:34.896Z,26.08
2019-05-13T12:07:04.646Z,26.80
2019-05-13T12:09:34.105Z,26.88
2019-05-13T12:12:03.727Z,24.46
2019-05-13T12:14:44.336Z,25.37
2019-05-13T12:17:04.358Z,27.59
2019-05-13T12:19:33.850Z,29.21
2019-05-13T12:22:03.393Z,29.19
2019-05-13T12:24:32.994Z,31.17
2019-05-13T12:27:03.775Z,31.76
2019-05-13T12:29:33.623Z,32.29
2019-05-13T12:32:03.470Z,30.28
2019-05-13T12:34:40.518Z,30.43
2019-05-13T12:37:04.618Z,28.28
2019-05-13T12:39:34.609Z,28.96
2019-05-13T12:42:04.062Z,28.57
2019-05-13T12:44:33.906Z,29.58
2019-05-13T12:47:03.597Z,29.22
2019-05-13T12:49:36.469Z,30.97
2019-05-13T12:52:04.845Z,26.79
2019-05-13T12:54:34.821Z,25.50
2019-05-13T12:57:11.235Z,25.82
2019-05-13T12:59:35.532Z,27.07
2019-05-13T13:02:05.007Z,28.26
2019-05-13T13:04:34.529Z,29.57
2019-05-13T13:07:04.060Z,29.34
2019-05-13T13:09:33.879Z,30.48
2019-05-13T13:12:04.023Z,31.16
2019-05-13T13:14:38.511Z,31.73
2019-05-13T13:17:05.115Z,33.46
2019-05-13T13:19:34.844Z,34.34
2019-05-13T13:22:07.856Z,33.65
2019-05-13T13:24:35.618Z,30.02
2019-05-13T13:27:14.536Z,28.84
2019-05-13T13:29:36.678Z,30.05
2019-05-13T13:32:06.131Z,30.69
2019-05-13T13:34:35.617Z,30.81
2019-05-13T13:37:05.475Z,32.81
2019-05-13T13:39:35.253Z,32.70
2019-05-13T13:42:05.843Z,32.90
2019-05-13T13:44:35.459Z,33.82
2019-05-13T13:47:04.923Z,34.28
2019-05-13T13:49:35.294Z,34.96
2019-05-13T13:52:05.239Z,34.40
2019-05-13T13:54:34.951Z,35.69
2019-05-13T13:57:04.444Z,34.92
2019-05-13T13:59:35.956Z,35.01
2019-05-13T14:02:05.778Z,36.55
2019-05-13T14:04:35.356Z,37.12
2019-05-13T14:07:02.559Z,35.59
2019-05-13T14:09:36.026Z,34.88
2019-05-13T14:12:05.494Z,36.42
2019-05-13T14:14:34.951Z,38.43
2019-05-13T14:17:04.416Z,38.06
2019-05-13T14:19:33.869Z,36.87
2019-05-13T14:22:03.615Z,34.85
2019-05-13T14:24:33.263Z,33.89
2019-05-13T14:27:03.204Z,34.27
2019-05-13T14:29:40.520Z,35.59
2019-05-13T14:32:04.007Z,36.70
2019-05-13T14:34:33.536Z,35.97
2019-05-13T14:37:03.065Z,35.16
2019-05-13T14:39:35.677Z,37.48
2019-05-13T14:42:03.689Z,33.85
2019-05-13T14:44:33.180Z,32.98
2019-05-13T14:47:02.667Z,34.08
2019-05-13T14:49:32.115Z,31.10
2019-05-13T14:52:01.582Z,29.30
2019-05-13T14:54:31.470Z,29.55
2019-05-13T14:57:02.408Z,31.04
2019-05-13T14:59:32.046Z,31.80
2019-05-13T15:02:01.557Z,31.60
2019-05-13T15:04:32.497Z,33.53
2019-05-13T15:07:02.607Z,32.35
2019-05-13T15:09:32.344Z,33.81
2019-05-13T15:12:02.488Z,33.47
2019-05-13T15:14:32.251Z,32.02
2019-05-13T15:17:06.319Z,34.17
2019-05-13T15:19:33.111Z,32.03
2019-05-13T15:22:02.909Z,34.23
2019-05-13T15:24:32.660Z,33.83
2019-05-13T15:27:02.372Z,34.75
2019-05-13T15:29:31.874Z,34.66
2019-05-13T15:32:02.128Z,32.40
2019-05-13T15:34:32.132Z,33.87
2019-05-13T15:37:02.297Z,32.44
2019-05-13T15:39:31.775Z,32.30
2019-05-13T15:42:02.014Z,32.74
2019-05-13T15:44:32.622Z,33.27
2019-05-13T15:47:18.161Z,31.74
2019-05-13T15:49:33.655Z,32.91
2019-05-13T15:52:03.140Z,32.82
2019-05-13T15:54:32.894Z,35.17
2019-05-13T15:57:02.615Z,34.80
2019-05-13T15:59:32.315Z,33.92
2019-05-13T16:02:02.431Z,33.66
2019-05-13T16:04:32.213Z,33.59
2019-05-13T16:07:01.888Z,33.73
2019-05-13T16:09:31.608Z,33.12
2019-05-13T16:12:01.690Z,32.54
2019-05-13T16:14:31.745Z,32.36
2019-05-13T16:17:01.353Z,32.50
2019-05-13T16:19:32.658Z,33.42
2019-05-13T16:22:02.152Z,33.33
2019-05-13T16:24:32.282Z,34.94
2019-05-13T16:27:02.754Z,34.36
2019-05-13T16:29:32.287Z,34.67
2019-05-13T16:32:01.826Z,34.87
2019-05-13T16:34:31.943Z,35.28
2019-05-13T16:37:02.107Z,33.59
2019-05-13T16:39:32.221Z,33.47
2019-05-13T16:42:01.766Z,33.00
2019-05-13T16:44:32.005Z,32.90
2019-05-13T16:47:02.090Z,33.98
2019-05-13T16:49:32.012Z,33.52
2019-05-13T16:52:02.537Z,33.76
2019-05-13T16:54:33.069Z,34.64
2019-05-13T16:57:02.791Z,35.08
2019-05-13T16:59:32.237Z,37.43
2019-05-13T17:02:02.038Z,35.56
2019-05-13T17:04:32.290Z,35.94
2019-05-13T17:07:01.883Z,35.10
2019-05-13T17:09:32.401Z,36.11
2019-05-13T17:12:01.978Z,36.60
2019-05-13T17:14:32.286Z,37.56
2019-05-13T17:17:02.212Z,37.38
2019-05-13T17:19:32.003Z,37.43
2019-05-13T17:22:02.486Z,36.42
2019-05-13T17:24:32.371Z,36.64
2019-05-13T17:27:02.724Z,37.42
2019-05-13T17:29:32.542Z,37.22
2019-05-13T17:32:02.573Z,37.00
2019-05-13T17:34:32.178Z,38.13
2019-05-13T17:37:02.751Z,37.37
2019-05-13T17:39:32.411Z,37.53
2019-05-13T17:42:02.197Z,37.73
2019-05-13T17:44:32.068Z,37.61
2019-05-13T17:47:02.143Z,37.61
2019-05-13T17:49:32.026Z,38.12
2019-05-13T17:52:02.510Z,38.87
2019-05-13T17:54:32.292Z,38.29
2019-05-13T17:57:02.174Z,39.89
2019-05-13T17:59:31.853Z,39.28
2019-05-13T18:02:02.662Z,39.86
2019-05-13T18:04:32.327Z,42.18
2019-05-13T18:07:01.940Z,42.18
2019-05-13T18:09:32.039Z,42.08
2019-05-13T18:12:02.397Z,44.02
2019-05-13T18:14:32.174Z,44.02
2019-05-13T18:17:02.359Z,44.78
2019-05-13T18:19:31.982Z,45.31
2019-05-13T18:22:02.172Z,45.93
2019-05-13T18:24:32.289Z,46.53
2019-05-13T18:27:02.105Z,48.14
2019-05-13T18:29:31.940Z,48.36
2019-05-13T18:32:01.990Z,47.81
2019-05-13T18:34:32.295Z,49.76
2019-05-13T18:37:02.675Z,50.93
2019-05-13T18:39:32.434Z,48.72
2019-05-13T18:42:01.839Z,50.54
2019-05-13T18:44:31.765Z,47.67
2019-05-13T18:47:01.719Z,48.35
2019-05-13T18:49:31.793Z,48.77
2019-05-13T18:52:01.428Z,49.41
2019-05-13T18:54:31.638Z,47.68
2019-05-13T18:57:01.773Z,48.85
2019-05-13T18:59:32.172Z,49.72
2019-05-13T19:02:01.846Z,50.09
2019-05-13T19:04:31.522Z,50.51
2019-05-13T19:07:02.333Z,50.47
2019-05-13T19:09:32.031Z,51.15
2019-05-13T19:12:01.671Z,52.40
2019-05-13T19:14:31.917Z,53.83
2019-05-13T19:17:01.851Z,52.17
2019-05-13T19:19:31.790Z,53.37
2019-05-13T19:22:02.305Z,53.79
2019-05-13T19:24:31.832Z,54.67
2019-05-13T19:27:01.891Z,55.65
2019-05-13T19:29:32.001Z,55.55
2019-05-13T19:32:01.901Z,57.21
2019-05-13T19:34:32.274Z,56.82
2019-05-13T19:37:02.598Z,58.22
2019-05-13T19:39:32.054Z,59.27
2019-05-13T19:42:01.508Z,59.03
2019-05-13T19:44:31.575Z,59.33
2019-05-13T19:47:01.977Z,59.42
2019-05-13T19:49:36.128Z,59.04
2019-05-13T19:52:02.790Z,58.88
2019-05-13T19:54:32.652Z,58.48
2019-05-13T19:57:02.115Z,60.00
2019-05-13T19:59:32.207Z,60.17
2019-05-13T20:02:01.929Z,61.29
2019-05-13T20:04:31.499Z,60.54
2019-05-13T20:07:01.145Z,61.23
2019-05-13T20:09:32.193Z,61.38
2019-05-13T20:12:02.190Z,62.10
2019-05-13T20:14:31.643Z,61.63
2019-05-13T20:17:01.626Z,61.65
2019-05-13T20:19:46.028Z,60.74
2019-05-13T20:22:02.549Z,59.40
2019-05-13T20:24:32.196Z,57.93
2019-05-13T20:27:02.103Z,55.58
2019-05-13T20:29:31.539Z,54.99
2019-05-13T20:32:01.470Z,54.46
2019-05-13T20:34:31.768Z,54.52
2019-05-13T20:37:02.076Z,54.64
2019-05-13T20:39:32.205Z,54.40
2019-05-13T20:42:01.883Z,54.58
2019-05-13T20:44:31.604Z,53.77
2019-05-13T20:47:01.742Z,53.75
2019-05-13T20:49:31.469Z,54.10
2019-05-13T20:52:00.976Z,54.31
2019-05-13T20:54:31.438Z,54.86
2019-05-13T20:57:01.958Z,53.64
2019-05-13T20:59:32.342Z,53.17
2019-05-13T21:02:02.455Z,53.55
2019-05-13T21:04:32.502Z,52.37
2019-05-13T21:07:02.310Z,52.61
2019-05-13T21:09:31.820Z,52.43
2019-05-13T21:12:01.917Z,54.09
2019-05-13T21:14:32.099Z,53.47
2019-05-13T21:17:02.226Z,53.99
2019-05-13T21:19:39.308Z,55.03
2019-05-13T21:22:03.285Z,55.31
2019-05-13T21:24:32.720Z,54.58
2019-05-13T21:27:02.274Z,55.35
2019-05-13T21:29:32.430Z,55.08
2019-05-13T21:32:02.082Z,54.01
2019-05-13T21:34:31.745Z,54.99
2019-05-13T21:37:02.389Z,55.35
2019-05-13T21:39:32.206Z,55.49
2019-05-13T21:42:02.472Z,55.89
2019-05-13T21:44:32.690Z,55.84
2019-05-13T21:47:02.378Z,55.36
2019-05-13T21:49:32.204Z,55.54
2019-05-13T21:52:01.657Z,55.91
2019-05-13T21:54:33.562Z,56.13
2019-05-13T21:57:02.620Z,57.38
2019-05-13T21:59:32.206Z,57.69
2019-05-13T22:02:02.292Z,57.28
2019-05-13T22:04:31.747Z,58.43
2019-05-13T22:07:01.711Z,58.37
2019-05-13T22:09:32.014Z,58.68
2019-05-13T22:12:02.103Z,60.19
2019-05-13T22:14:32.136Z,58.91
2019-05-13T22:17:01.896Z,59.10
2019-05-13T22:19:31.721Z,60.98
2019-05-13T22:22:02.242Z,60.78
2019-05-13T22:24:32.010Z,61.41
2019-05-13T22:27:02.058Z,61.85
2019-05-13T22:29:32.128Z,62.66
2019-05-13T22:32:02.324Z,63.80
2019-05-13T22:34:32.095Z,64.46
2019-05-13T22:37:02.423Z,65.44
2019-05-13T22:39:34.634Z,66.36
2019-05-13T22:42:03.270Z,67.08
2019-05-13T22:44:32.948Z,68.34
2019-05-13T22:47:02.706Z,68.44
2019-05-13T22:49:32.111Z,68.08
2019-05-13T22:52:01.557Z,68.41
2019-05-13T22:57:01.243Z,68.92
2019-05-13T22:59:32.218Z,69.38
2019-05-13T23:02:01.893Z,69.71
2019-05-13T23:04:31.599Z,70.43
2019-05-13T23:07:01.438Z,71.46
2019-05-13T23:09:32.599Z,70.56
2019-05-13T23:12:02.435Z,70.70
2019-05-13T23:14:31.886Z,71.07
2019-05-13T23:17:02.336Z,71.42
2019-05-13T23:19:32.403Z,72.96
2019-05-13T23:22:02.013Z,71.14
2019-05-13T23:24:31.473Z,71.28
2019-05-13T23:27:02.111Z,71.67
2019-05-13T23:29:32.040Z,71.71
2019-05-13T23:32:01.902Z,71.33
2019-05-13T23:34:31.971Z,70.60
2019-05-13T23:37:01.524Z,69.80
2019-05-13T23:39:32.123Z,69.23
2019-05-13T23:42:02.070Z,66.80
2019-05-13T23:44:32.252Z,66.49
2019-05-13T23:47:01.800Z,65.49
2019-05-13T23:49:31.778Z,66.72
2019-05-13T23:52:02.505Z,66.17
2019-05-13T23:54:32.354Z,66.40
2019-05-13T23:57:01.789Z,65.48
2019-05-13T23:59:31.351Z,66.36
